Time;durP1;ratioP1;P1;durP2;ratioP2;P2;SDS_P1;SDS_P2;PMS_P1;PMS_P2;Temp;Humidity;BMP_temperature;BMP_pressure;BME280_temperature;BME280_humidity;BME280_pressure;Samples;Min_cycle;Max_cycle;Signal;HPM_P1;HPM_P2
2023/01/29 07:01:50;;;;;;;37.28;26.63;;;;;;;-145.79;69.02;80248.28;5309658;27;20475;-68
2023/01/29 07:04:24;;;;;;;36.47;25.67;;;;;;;-145.79;68.69;80256.78;5299883;28;20037;-68
2023/01/29 07:06:57;;;;;;;34.47;26.70;;;;;;;-145.79;69.34;80246.16;5300550;28;20090;-69
2023/01/29 07:09:29;;;;;;;36.38;26.40;;;;;;;-145.79;69.28;80248.28;5299165;28;20069;-68
2023/01/29 07:12:03;;;;;;;38.72;28.35;;;;;;;-145.79;69.29;80244.03;5298102;28;20467;-68
2023/01/29 07:14:35;;;;;;;36.42;26.27;;;;;;;-145.79;69.03;80239.78;5299587;28;20028;-68
2023/01/29 07:17:06;;;;;;;36.22;26.77;;;;;;;-145.79;68.63;80235.56;5299567;28;20024;-68
2023/01/29 07:19:37;;;;;;;36.72;27.83;;;;;;;-145.79;68.55;80239.78;5300585;28;20074;-68
2023/01/29 07:22:09;;;;;;;39.83;29.25;;;;;;;-145.79;68.40;80235.56;5300697;28;20036;-69
2023/01/29 07:24:40;;;;;;;33.13;26.30;;;;;;;-145.79;68.83;80244.03;5300330;28;20415;-68
2023/01/29 07:27:13;;;;;;;35.10;26.52;;;;;;;-145.79;68.42;80231.31;5293865;28;20116;-68
2023/01/29 07:29:44;;;;;;;35.53;26.00;;;;;;;-145.79;68.48;80222.81;5279398;28;20098;-68
2023/01/29 07:32:15;;;;;;;37.63;27.83;;;;;;;-145.79;68.04;80224.94;5277575;28;20359;-68
2023/01/29 07:34:47;;;;;;;36.55;26.88;;;;;;;-145.79;68.24;80227.06;5279055;28;20028;-69
2023/01/29 07:37:18;;;;;;;36.35;26.45;;;;;;;-145.79;68.09;80222.81;5294389;28;20031;-68
2023/01/29 07:39:49;;;;;;;32.95;25.75;;;;;;;-145.79;67.97;80210.09;5299108;28;20043;-69
2023/01/29 07:42:20;;;;;;;41.72;31.42;;;;;;;-145.79;67.90;80207.97;5294692;28;20024;-68
2023/01/29 07:44:52;;;;;;;40.55;29.50;;;;;;;-145.79;68.36;80201.63;5298619;28;20021;-69
2023/01/29 07:47:23;;;;;;;39.55;29.35;;;;;;;-145.79;67.93;80191.00;5300429;28;20497;-68
2023/01/29 07:49:55;;;;;;;42.13;30.27;;;;;;;-145.79;67.67;80203.75;5300120;28;20105;-67
2023/01/29 07:52:31;;;;;;;37.08;27.27;;;;;;;-145.79;67.97;80210.09;5299193;28;20043;-68
2023/01/29 07:55:05;;;;;;;33.50;24.85;;;;;;;-145.79;67.75;80214.34;5299511;28;20034;-68
2023/01/29 07:57:36;;;;;;;34.90;25.20;;;;;;;-145.79;67.60;80207.97;5299771;27;20366;-68
2023/01/29 08:00:09;;;;;;;34.42;26.02;;;;;;;-145.79;68.07;80222.81;5298163;28;20052;-68
2023/01/29 08:02:44;;;;;;;32.63;25.25;;;;;;;-145.79;68.33;80210.09;5281781;28;20075;-67
2023/01/29 08:05:16;;;;;;;33.72;25.25;;;;;;;-145.79;67.68;80207.97;5278314;28;20033;-68
2023/01/29 08:07:52;;;;;;;34.78;25.55;;;;;;;-145.79;67.52;80207.97;5277297;28;20031;-68
2023/01/29 08:10:24;;;;;;;34.00;25.50;;;;;;;-145.79;68.02;80205.84;5286099;28;20107;-68
2023/01/29 08:12:57;;;;;;;32.17;25.02;;;;;;;-145.79;68.07;80197.38;5286117;28;20039;-68
2023/01/29 08:15:29;;;;;;;35.97;27.90;;;;;;;-145.79;67.84;80203.75;5279067;28;20029;-68
2023/01/29 08:18:02;;;;;;;34.45;25.52;;;;;;;-145.79;67.36;80197.38;5264106;28;20025;-68
2023/01/29 08:20:34;;;;;;;36.50;25.13;;;;;;;-145.79;67.95;80195.25;5267387;28;20024;-68
2023/01/29 08:23:09;;;;;;;33.67;25.38;;;;;;;-145.79;67.55;80201.63;5276089;28;20035;-68
2023/01/29 08:25:40;;;;;;;34.70;25.88;;;;;;;-145.79;67.85;80193.13;5285227;28;20021;-69
2023/01/29 08:28:11;;;;;;;34.03;25.33;;;;;;;-145.79;67.26;80195.25;5278311;28;20490;-68
2023/01/29 08:30:43;;;;;;;33.28;26.92;;;;;;;-145.79;67.46;80186.78;5285066;28;20092;-68
2023/01/29 08:33:18;;;;;;;34.55;25.42;;;;;;;-145.79;67.45;80188.88;5284925;28;20029;-68
2023/01/29 08:35:50;;;;;;;34.35;25.30;;;;;;;-145.79;67.98;80176.16;5284239;28;20036;-67
2023/01/29 08:38:21;;;;;;;35.25;25.85;;;;;;;-145.79;67.62;80184.66;5281696;28;20017;-68
2023/01/29 08:40:54;;;;;;;36.25;26.15;;;;;;;-145.79;67.24;80174.03;5263562;28;20033;-67
2023/01/29 08:43:25;;;;;;;33.10;25.80;;;;;;;-145.79;67.22;80167.69;5267992;28;20024;-68
2023/01/29 08:45:57;;;;;;;32.80;24.45;;;;;;;-145.79;67.55;80169.81;5284965;28;20135;-68
2023/01/29 08:48:29;;;;;;;34.53;25.42;;;;;;;-145.79;67.44;80157.06;5283179;28;20025;-69
2023/01/29 08:51:01;;;;;;;32.80;24.98;;;;;;;-145.79;67.51;80154.94;5284294;28;20013;-68
2023/01/29 08:53:35;;;;;;;31.58;24.50;;;;;;;-145.79;66.99;80163.44;5282635;28;20024;-68
2023/01/29 08:56:07;;;;;;;33.15;24.42;;;;;;;-145.79;66.98;80150.72;5284368;28;20463;-69
2023/01/29 08:58:42;;;;;;;31.00;24.02;;;;;;;-145.79;67.27;80154.94;5280948;28;20138;-69
2023/01/29 09:01:14;;;;;;;35.65;24.65;;;;;;;-145.79;67.01;80154.94;5282943;28;20131;-69
2023/01/29 09:03:45;;;;;;;30.45;24.38;;;;;;;-145.79;67.41;80154.94;5271039;28;20029;-69
2023/01/29 09:06:17;;;;;;;32.55;23.95;;;;;;;-145.79;67.03;80150.72;5261646;28;20024;-70
2023/01/29 09:08:50;;;;;;;30.55;23.45;;;;;;;-145.79;67.04;80146.47;5262632;28;20045;-67
2023/01/29 09:11:22;;;;;;;30.23;22.10;;;;;;;-145.79;66.98;80144.34;5262355;28;20494;-67
2023/01/29 09:13:53;;;;;;;33.85;23.55;;;;;;;-145.79;66.67;80146.47;5261636;28;20037;-68
2023/01/29 09:16:24;;;;;;;33.05;24.13;;;;;;;-145.79;66.85;80135.88;5262760;28;20017;-68
2023/01/29 09:19:02;;;;;;;34.75;24.63;;;;;;;-145.79;66.56;80127.38;5275777;28;20047;-68
2023/01/29 09:21:33;;;;;;;31.27;23.33;;;;;;;-145.79;66.81;80146.47;5284236;28;20368;-68
2023/01/29 09:24:04;;;;;;;33.10;24.40;;;;;;;-145.79;66.69;80129.50;5282495;28;20028;-68
2023/01/29 09:26:38;;;;;;;31.42;23.77;;;;;;;-145.79;66.61;80125.25;5284336;28;20039;-68
2023/01/29 09:29:10;;;;;;;29.02;22.58;;;;;;;-145.79;66.51;80118.91;5273142;28;20487;-68
2023/01/29 09:31:41;;;;;;;30.65;22.52;;;;;;;-145.79;66.51;80118.91;5262589;28;20082;-69
2023/01/29 09:34:13;;;;;;;29.08;22.85;;;;;;;-145.79;66.32;80129.50;5276743;28;20020;-68
2023/01/29 09:36:45;;;;;;;32.75;23.90;;;;;;;-145.79;66.31;80125.25;5284133;28;20020;-68
2023/01/29 09:39:16;;;;;;;30.98;23.45;;;;;;;-145.79;66.67;80137.97;5283280;28;20059;-68
2023/01/29 09:42:07;;;;;;;28.92;20.92;;;;;;;-145.79;67.33;80129.50;5282505;28;20093;-69
2023/01/29 09:44:48;;;;;;;29.15;22.30;;;;;;;-145.79;67.12;80131.63;5275029;28;20123;-69
2023/01/29 09:47:23;;;;;;;29.08;22.63;;;;;;;-145.79;66.79;80133.75;5278285;28;20028;-68
2023/01/29 09:50:04;;;;;;;30.35;22.25;;;;;;;-145.79;66.79;80129.50;5281598;28;20111;-69
2023/01/29 09:52:41;;;;;;;28.90;21.58;;;;;;;-145.79;67.13;80116.78;5277007;28;20044;-69
2023/01/29 09:55:25;;;;;;;28.88;21.75;;;;;;;-145.79;66.50;80110.41;5282553;28;20399;-69
2023/01/29 09:58:10;;;;;;;31.05;23.13;;;;;;;-145.79;66.80;80116.78;5281548;28;20032;-66
2023/01/29 10:01:17;;;;;;;31.15;22.70;;;;;;;-145.79;66.63;80101.94;5278333;28;20506;-68
2023/01/29 10:03:51;;;;;;;;;;;;;;;-145.79;66.52;80091.31;5268676;28;20029;-68
2023/01/29 10:06:37;;;;;;;27.42;22.10;;;;;;;-145.79;66.69;80110.41;5273990;28;20290;-68
2023/01/29 10:09:50;;;;;;;29.02;21.25;;;;;;;-145.79;66.64;80104.03;5278647;28;20456;-68
2023/01/29 10:12:48;;;;;;;27.52;20.75;;;;;;;-145.79;66.04;80114.66;5280242;28;20063;-67
2023/01/29 10:15:28;;;;;;;29.27;21.05;;;;;;;-145.79;66.07;80116.78;5279081;28;20017;-67
2023/01/29 10:18:05;;;;;;;29.35;22.45;;;;;;;-145.79;66.40;80116.78;5280904;28;20025;-66
2023/01/29 10:21:10;;;;;;;28.10;21.25;;;;;;;-145.79;66.17;80116.78;5280637;28;20345;-66
2023/01/29 10:23:53;;;;;;;29.17;21.92;;;;;;;-145.79;66.17;80108.28;5280875;28;20028;-67
2023/01/29 10:26:27;;;;;;;29.38;22.67;;;;;;;-145.79;66.16;80104.03;5280626;28;20032;-66
2023/01/29 10:29:01;;;;;;;31.73;22.38;;;;;;;-145.79;66.44;80099.81;5279324;28;20364;-67
2023/01/29 10:31:38;;;;;;;29.20;22.80;;;;;;;-145.79;65.91;80099.81;5280399;28;20448;-67
2023/01/29 10:34:25;;;;;;;30.80;22.42;;;;;;;-145.79;66.42;80095.56;5280102;28;20368;-67
2023/01/29 10:36:56;;;;;;;31.40;23.17;;;;;;;-145.79;66.01;80082.84;5284803;28;20071;-66
2023/01/29 10:39:29;;;;;;;28.63;22.00;;;;;;;-145.79;65.61;80078.59;5285486;28;20077;-67
2023/01/29 10:42:13;;;;;;;27.33;21.52;;;;;;;-145.79;65.37;80076.47;5293991;28;20029;-67
2023/01/29 10:44:50;;;;;;;29.95;22.55;;;;;;;-145.79;65.51;80065.88;5276882;28;20035;-68
2023/01/29 10:47:36;;;;;;;27.15;21.42;;;;;;;-145.79;65.82;80068.00;5289889;28;20028;-68
2023/01/29 10:50:26;;;;;;;;;;;;;;;-145.79;65.39;80046.78;5282349;28;20124;-68
2023/01/29 10:53:32;;;;;;;28.20;22.80;;;;;;;-145.79;65.28;80053.16;5281401;28;20042;-68
2023/01/29 10:56:22;;;;;;;25.63;20.23;;;;;;;-145.79;64.80;80046.78;5280915;28;20028;-68
2023/01/29 10:59:00;;;;;;;28.35;21.60;;;;;;;-145.79;65.11;80057.38;5262878;28;20067;-68
2023/01/29 11:01:31;;;;;;;30.00;21.45;;;;;;;-145.79;65.34;80053.16;5262553;28;20154;-67
2023/01/29 11:04:08;;;;;;;27.02;20.65;;;;;;;-145.79;64.70;80036.16;5262975;28;20116;-68
2023/01/29 11:06:40;;;;;;;24.42;19.23;;;;;;;-145.79;64.90;80044.66;5273820;28;20044;-68
2023/01/29 11:09:53;;;;;;;23.88;18.50;;;;;;;-145.79;64.70;80019.19;5279678;28;20047;-67
2023/01/29 11:12:29;;;;;;;24.17;19.05;;;;;;;-145.79;64.41;80019.19;5206905;28;20041;-67
2023/01/29 11:15:25;;;;;;;23.63;18.70;;;;;;;-145.79;64.87;80010.72;5269422;28;20037;-68
2023/01/29 11:18:02;;;;;;;24.35;18.63;;;;;;;-145.79;64.44;80010.72;5277617;28;20074;-67
2023/01/29 11:20:33;;;;;;;25.45;19.60;;;;;;;-145.79;64.25;79995.88;5281939;28;20109;-68
2023/01/29 11:23:04;;;;;;;25.95;20.52;;;;;;;-145.79;64.82;79998.00;5281348;28;20020;-68
2023/01/29 11:25:39;;;;;;;23.35;19.13;;;;;;;-145.79;64.04;79983.16;5285503;28;20024;-68
2023/01/29 11:28:10;;;;;;;22.63;19.83;;;;;;;-145.79;63.70;79983.16;5275483;28;20025;-68
2023/01/29 11:30:44;;;;;;;25.23;19.15;;;;;;;-145.79;64.46;79972.53;5284084;28;20024;-67
2023/01/29 11:33:22;;;;;;;25.95;20.27;;;;;;;-145.79;64.36;79959.81;5282987;28;20028;-68
2023/01/29 11:35:56;;;;;;;27.00;20.55;;;;;;;-145.79;64.11;79959.81;5280035;28;20016;-68
2023/01/29 11:38:31;;;;;;;25.75;19.85;;;;;;;-145.79;64.46;79951.34;5282993;28;20021;-67
2023/01/29 11:41:13;;;;;;;25.00;19.80;;;;;;;-145.79;64.32;79936.50;5280230;28;20032;-67
2023/01/29 11:43:44;;;;;;;28.05;19.95;;;;;;;-145.79;63.47;79938.59;5281752;28;20052;-66
2023/01/29 11:46:16;;;;;;;27.25;19.95;;;;;;;-145.79;63.25;79930.13;5282711;28;20059;-67
2023/01/29 11:48:52;;;;;;;25.80;20.10;;;;;;;-145.79;63.40;79925.88;5284722;28;20020;-68
2023/01/29 11:51:28;;;;;;;24.80;18.83;;;;;;;-145.79;63.66;79917.41;5281963;28;20059;-67
2023/01/29 11:54:04;;;;;;;23.67;19.52;;;;;;;-145.79;63.25;79915.28;5279665;28;20108;-68
2023/01/29 11:56:43;;;;;;;;;;;;;;;-145.79;63.34;79883.47;5286750;28;20020;-67
2023/01/29 11:59:59;;;;;;;22.20;18.33;;;;;;;-145.79;63.45;79894.06;5280321;28;19942;-67
2023/01/29 12:02:44;;;;;;;26.17;19.90;;;;;;;-145.79;63.71;79883.47;5287434;28;20032;-68
2023/01/29 12:05:18;;;;;;;24.63;19.17;;;;;;;-145.79;63.57;79879.22;5276487;28;20094;-67
2023/01/29 12:07:52;;;;;;;24.73;18.20;;;;;;;-145.79;63.46;79870.72;5279420;28;20024;-68
2023/01/29 12:10:36;;;;;;;28.63;22.63;;;;;;;-145.79;63.43;79866.50;5281887;28;20029;-68
2023/01/29 12:13:19;;;;;;;25.08;20.40;;;;;;;-145.79;63.69;79855.88;5282804;28;20029;-67
2023/01/29 12:16:09;;;;;;;25.10;20.77;;;;;;;-145.79;63.48;79851.66;5279552;28;20029;-68
2023/01/29 12:18:53;;;;;;;27.40;20.90;;;;;;;-145.79;63.34;79843.16;5279998;28;20017;-67
2023/01/29 12:21:59;;;;;;;23.77;20.50;;;;;;;-145.79;63.24;79832.56;5284849;28;20108;-68
2023/01/29 12:24:59;;;;;;;27.20;21.15;;;;;;;-145.79;63.51;79815.59;5272848;28;20490;-67
2023/01/29 12:27:40;;;;;;;22.48;19.05;;;;;;;-145.79;63.33;79817.72;5283292;28;20023;-68
2023/01/29 12:30:19;;;;;;;22.50;19.25;;;;;;;-145.79;63.42;79819.84;5284536;28;20020;-68
2023/01/29 12:33:16;;;;;;;26.80;22.05;;;;;;;-145.79;63.47;79826.19;5282490;28;20358;-67
2023/01/29 12:35:55;;;;;;;24.88;18.45;;;;;;;-145.79;63.46;79813.47;5284725;28;20391;-68
2023/01/29 12:38:26;;;;;;;26.02;20.50;;;;;;;-145.79;63.08;79807.09;5287299;28;20032;-68
2023/01/29 12:41:06;;;;;;;27.25;20.63;;;;;;;-145.79;62.84;79802.88;5284863;28;20036;-69
2023/01/29 12:43:55;;;;;;;25.20;20.27;;;;;;;-145.79;62.88;79792.25;5305228;28;20032;-68
2023/01/29 12:46:37;;;;;;;28.63;21.35;;;;;;;-145.79;63.51;79790.13;5284661;28;20103;-69
2023/01/29 12:49:21;;;;;;;24.83;21.15;;;;;;;-145.79;63.69;79798.63;5286411;28;20039;-67
2023/01/29 12:52:31;;;;;;;26.02;21.42;;;;;;;-145.79;63.71;79796.50;5278354;28;20664;-69
2023/01/29 12:55:39;;;;;;;26.60;20.92;;;;;;;-145.79;63.34;79790.13;5284598;28;20029;-67
2023/01/29 12:58:22;;;;;;;25.15;20.48;;;;;;;-145.79;63.15;79775.28;5252887;28;20036;-67
2023/01/29 13:00:59;;;;;;;27.20;23.23;;;;;;;-145.79;63.61;79781.66;5277698;28;20036;-68
2023/01/29 13:03:48;;;;;;;25.13;21.73;;;;;;;-145.79;63.41;79777.41;5279698;28;20028;-67
2023/01/29 13:06:27;;;;;;;26.50;22.25;;;;;;;-145.79;63.51;79779.53;5274549;28;20025;-68
2023/01/29 13:09:11;;;;;;;25.25;21.65;;;;;;;-145.79;64.17;79768.94;5272093;28;20111;-67
2023/01/29 13:12:01;;;;;;;26.77;20.13;;;;;;;-145.79;63.67;79766.81;5278067;28;20487;-67
2023/01/29 13:14:42;;;;;;;27.15;22.42;;;;;;;-145.79;63.69;79766.81;5276638;28;20039;-66
2023/01/29 13:17:31;;;;;;;28.30;23.13;;;;;;;-145.79;64.05;79760.44;5278951;28;20016;-67
2023/01/29 13:20:17;;;;;;;30.98;23.17;;;;;;;-145.79;64.31;79754.09;5278240;28;20024;-67
2023/01/29 13:22:51;;;;;;;28.92;22.80;;;;;;;-145.79;64.38;79758.31;5279659;28;20075;-68
2023/01/29 13:25:22;;;;;;;29.00;22.60;;;;;;;-145.79;64.44;79745.59;5277716;28;20032;-67
2023/01/29 13:27:54;;;;;;;29.98;22.92;;;;;;;-145.79;63.75;79745.59;5278695;28;20506;-68
2023/01/29 13:30:31;;;;;;;27.42;22.48;;;;;;;-145.79;64.72;79739.25;5280209;28;20216;-68
2023/01/29 13:33:10;;;;;;;30.65;22.38;;;;;;;-145.79;64.36;79739.25;5282019;28;20031;-68
2023/01/29 13:35:44;;;;;;;28.67;23.75;;;;;;;-145.79;64.46;79735.00;5281095;28;20491;-67
2023/01/29 13:38:29;;;;;;;29.02;22.02;;;;;;;-145.79;64.85;79726.50;5281298;28;20039;-68
2023/01/29 13:41:07;;;;;;;31.70;24.00;;;;;;;-145.79;64.37;79722.28;5279785;28;20059;-67
2023/01/29 13:43:42;;;;;;;29.50;23.67;;;;;;;-145.79;65.06;79724.41;5276124;28;20032;-68
2023/01/29 13:46:20;;;;;;;29.48;23.67;;;;;;;-145.79;65.14;79718.03;5275041;28;20096;-68
2023/01/29 13:48:57;;;;;;;30.40;23.25;;;;;;;-145.79;64.77;79718.03;5283047;28;20098;-68
2023/01/29 13:51:35;;;;;;;27.90;24.05;;;;;;;-145.79;64.76;79715.91;5275260;28;20028;-68
2023/01/29 13:54:19;;;;;;;31.35;24.10;;;;;;;-145.79;65.10;79711.66;5268963;28;20109;-68
2023/01/29 13:56:54;;;;;;;29.30;23.02;;;;;;;-145.79;65.16;79715.91;5279573;28;20078;-69
2023/01/29 13:59:51;;;;;;;34.15;23.90;;;;;;;-145.79;65.04;79709.53;5280728;28;20385;-71
2023/01/29 14:02:28;;;;;;;30.85;23.92;;;;;;;-145.79;64.63;79696.81;5280379;28;20031;-69
2023/01/29 14:05:30;;;;;;;47.72;35.97;;;;;;;-145.79;64.94;79707.44;5276471;28;20021;-68
2023/01/29 14:08:07;;;;;;;32.63;24.08;;;;;;;-145.79;65.03;79692.56;5279208;28;20032;-68
2023/01/29 14:10:40;;;;;;;31.05;24.42;;;;;;;-145.79;65.31;79692.56;5278957;28;20040;-68
2023/01/29 14:13:18;;;;;;;28.38;23.25;;;;;;;-145.79;64.97;79688.34;5280127;28;20020;-68
2023/01/29 14:15:55;;;;;;;37.55;26.02;;;;;;;-145.79;65.09;79688.34;5279258;28;20032;-68
2023/01/29 14:18:29;;;;;;;30.92;26.25;;;;;;;-145.79;64.69;79675.63;5274482;28;20453;-68
2023/01/29 14:21:22;;;;;;;36.28;24.92;;;;;;;-145.79;65.14;79667.13;5279990;28;20028;-68
2023/01/29 14:23:58;;;;;;;34.40;25.10;;;;;;;-145.79;64.90;79671.38;5279044;28;20450;-69
2023/01/29 14:26:32;;;;;;;26.73;21.90;;;;;;;-145.79;65.10;79673.50;5281205;28;20020;-68
2023/01/29 14:29:14;;;;;;;31.95;24.33;;;;;;;-145.79;65.02;79665.00;5279241;28;20033;-68
2023/01/29 14:32:06;;;;;;;33.03;25.20;;;;;;;-145.79;65.22;79671.38;5280913;28;20125;-68
2023/01/29 14:34:44;;;;;;;32.53;24.73;;;;;;;-145.79;65.26;79662.88;5276785;28;20028;-68
2023/01/29 14:37:16;;;;;;;32.50;25.27;;;;;;;-145.79;65.22;79662.88;5280641;28;20020;-68
2023/01/29 14:39:50;;;;;;;31.08;23.63;;;;;;;-145.79;64.77;79658.66;5276385;28;20036;-68
2023/01/29 14:42:26;;;;;;;30.13;23.55;;;;;;;-145.79;65.17;79662.88;5271058;28;20056;-67
2023/01/29 14:45:02;;;;;;;43.90;31.60;;;;;;;-145.79;64.84;79660.75;5280276;28;20494;-68
2023/01/29 14:47:37;;;;;;;33.30;27.70;;;;;;;-145.79;64.64;79652.28;5275964;28;20029;-67
2023/01/29 14:50:33;;;;;;;30.48;23.85;;;;;;;-145.79;64.73;79652.28;5275937;28;20039;-68
2023/01/29 14:53:39;;;;;;;27.80;22.67;;;;;;;-145.79;64.96;79645.91;5278043;28;20028;-69
2023/01/29 14:56:18;;;;;;;30.90;23.10;;;;;;;-145.79;64.91;79645.91;5279749;28;20043;-70
2023/01/29 14:58:55;;;;;;;30.05;24.70;;;;;;;-145.79;64.63;79654.41;5280627;28;20040;-70
2023/01/29 15:01:38;;;;;;;28.45;22.52;;;;;;;-145.79;64.82;79643.81;5279753;28;20045;-69
2023/01/29 15:04:20;;;;;;;31.02;22.48;;;;;;;-145.79;64.84;79652.28;5281110;28;20364;-68
2023/01/29 15:07:05;;;;;;;31.80;25.60;;;;;;;-145.79;64.66;79645.91;5282000;28;20031;-69
2023/01/29 15:09:45;;;;;;;33.55;24.17;;;;;;;-145.79;64.87;79643.81;5279278;28;20037;-69
2023/01/29 15:12:35;;;;;;;29.80;22.73;;;;;;;-145.79;64.63;79633.19;5282447;28;20028;-69
2023/01/29 15:15:17;;;;;;;30.02;22.48;;;;;;;-145.79;64.72;79637.44;5280371;28;20032;-69
2023/01/29 15:18:13;;;;;;;32.78;22.85;;;;;;;-145.79;64.59;79624.72;5278641;28;20028;-67
2023/01/29 15:20:45;;;;;;;31.75;24.70;;;;;;;-145.79;64.98;79633.19;5280048;28;20082;-69
2023/01/29 15:23:27;;;;;;;26.67;22.00;;;;;;;-145.79;64.65;79628.97;5283326;28;20020;-68
2023/01/29 15:26:02;;;;;;;29.40;22.98;;;;;;;-145.79;64.88;79626.84;5283407;28;20539;-68
2023/01/29 15:28:34;;;;;;;27.88;21.13;;;;;;;-145.79;65.12;79620.47;5282804;28;20066;-68
2023/01/29 15:31:12;;;;;;;29.77;22.08;;;;;;;-145.79;64.76;79624.72;5283919;28;20024;-69
2023/01/29 15:33:45;;;;;;;29.05;22.90;;;;;;;-145.79;64.38;79614.09;5286004;28;20035;-68
2023/01/29 15:36:23;;;;;;;28.23;22.50;;;;;;;-145.79;64.87;79607.75;5284998;28;20029;-67
2023/01/29 15:39:13;;;;;;;26.63;21.45;;;;;;;-145.79;64.35;79599.25;5284588;28;20424;-69
2023/01/29 15:41:45;;;;;;;29.25;21.98;;;;;;;-145.79;64.61;79601.38;5285798;28;20036;-69
2023/01/29 15:44:20;;;;;;;27.20;22.10;;;;;;;-145.79;63.92;79595.03;5284275;28;20054;-68
2023/01/29 15:46:55;;;;;;;30.88;22.70;;;;;;;-145.79;64.69;79597.13;5284388;28;20041;-69
2023/01/29 15:49:34;;;;;;;28.88;23.45;;;;;;;-145.79;64.82;79592.91;5276510;28;20415;-69
2023/01/29 15:52:20;;;;;;;28.88;21.02;;;;;;;-145.79;64.23;79588.66;5285335;28;20056;-69
2023/01/29 15:54:53;;;;;;;26.58;21.73;;;;;;;-145.79;64.37;79575.94;5286393;28;20420;-69
2023/01/29 15:57:33;;;;;;;30.70;22.88;;;;;;;-145.79;64.54;79588.66;5280862;28;20036;-69
2023/01/29 16:00:06;;;;;;;24.55;20.27;;;;;;;-145.79;64.53;79582.28;5272852;28;20055;-68
2023/01/29 16:02:40;;;;;;;28.02;22.17;;;;;;;-145.79;64.66;79573.81;5285775;28;20025;-69
2023/01/29 16:05:25;;;;;;;29.48;21.70;;;;;;;-145.79;64.43;79571.69;5285192;28;20115;-69
2023/01/29 16:07:58;;;;;;;31.10;23.73;;;;;;;-145.79;64.27;79573.81;5283486;28;20067;-68
2023/01/29 16:10:31;;;;;;;30.42;22.42;;;;;;;-145.79;64.52;79573.81;5286133;28;20016;-68
2023/01/29 16:13:03;;;;;;;24.88;20.10;;;;;;;-145.79;64.36;79575.94;5275857;28;20103;-69
2023/01/29 16:15:53;;;;;;;24.42;20.00;;;;;;;-145.79;64.00;79567.44;5264847;28;20017;-70
2023/01/29 16:18:36;;;;;;;27.08;19.98;;;;;;;-145.79;64.43;79571.69;5264924;28;20025;-69
2023/01/29 16:21:22;;;;;;;27.02;19.70;;;;;;;-145.79;64.22;79573.81;5285777;28;20507;-69
2023/01/29 16:23:55;;;;;;;;;;;;;;;-145.79;63.71;79552.59;5285767;28;20031;-69
2023/01/29 16:26:30;;;;;;;21.42;17.65;;;;;;;-145.79;64.00;79569.56;5282847;28;19920;-71
2023/01/29 16:29:08;;;;;;;23.33;19.95;;;;;;;-145.79;64.04;79563.22;5285391;28;20024;-69
2023/01/29 16:31:43;;;;;;;21.30;17.77;;;;;;;-145.79;63.92;79563.22;5264792;28;20029;-69
